Decoded Metar for OIIE (ABYEK in IRAN) (IATA:N/A) | Meteo·Mobile Aviation Weather
aviador You're here:

OIIE Decoded Metar

ABYEK in IRAN
Report Time2019-03-23 08:00:00
UTC Time2019-03-23 08:32:40
Flight Rules vfr VFR
Wind110° at 10 kt
W.Decomp.*RWY 11: 10.0 kt HW 0.7 kt LCW
W.Rank110° ranks 11
Current wind is above 110° avg. (8.1)
Visibility9999 m
Phenomena:N/A
Clouds:Scattered 040 Hf
Scattered 180 Hf
Expected CloudBase > 5,600 ft AGL from Temp-Dew spread
CeilingNone
Temp13°C (ISA +5)
Dew Point-1°C (38% RH)
AAT7.3°C
QNH1018 hPa
Density Alt3,757 ft
Elevation3,304 ft
Report Wrong Elevation
Raw Report
METAR OIIE 230800Z 11010KT 9999 SCT040 SCT180 13/M01 Q1018=

Extra information for OIIE:More info

Metar Taf Metar & Taf Last 4 Metars F.Rules Stats Wind Profile Meteogram Temp Stats Airport Information Weather charts Add Link Nearby VenuesMetar ALERT Operation Metar Decoded Social comments